sensor_id;sensor_type;location;lat;lon;timestamp;P1;durP1;ratioP1;P2;durP2;ratioP2
47219;SDS011;32961;51.936;4.788;2023-11-19T00:00:27;36.08;;;4.38;;
47219;SDS011;32961;51.936;4.788;2023-11-19T00:02:55;29.67;;;5.03;;
47219;SDS011;32961;51.936;4.788;2023-11-19T00:05:23;30.30;;;4.95;;
47219;SDS011;32961;51.936;4.788;2023-11-19T00:07:51;36.60;;;4.55;;
47219;SDS011;32961;51.936;4.788;2023-11-19T00:10:19;38.47;;;4.60;;
47219;SDS011;32961;51.936;4.788;2023-11-19T00:12:48;31.45;;;4.65;;
47219;SDS011;32961;51.936;4.788;2023-11-19T00:15:16;30.40;;;4.65;;
47219;SDS011;32961;51.936;4.788;2023-11-19T00:17:46;35.40;;;4.60;;
47219;SDS011;32961;51.936;4.788;2023-11-19T00:20:16;36.67;;;5.15;;
47219;SDS011;32961;51.936;4.788;2023-11-19T00:22:47;43.65;;;6.10;;
47219;SDS011;32961;51.936;4.788;2023-11-19T00:25:18;35.25;;;5.63;;
47219;SDS011;32961;51.936;4.788;2023-11-19T00:27:48;36.35;;;5.90;;
47219;SDS011;32961;51.936;4.788;2023-11-19T00:30:17;37.55;;;6.43;;
47219;SDS011;32961;51.936;4.788;2023-11-19T00:32:45;34.70;;;5.78;;
47219;SDS011;32961;51.936;4.788;2023-11-19T00:35:13;44.17;;;5.90;;
47219;SDS011;32961;51.936;4.788;2023-11-19T00:37:41;40.25;;;5.90;;
47219;SDS011;32961;51.936;4.788;2023-11-19T00:40:13;33.78;;;5.70;;
47219;SDS011;32961;51.936;4.788;2023-11-19T00:42:43;40.90;;;5.93;;
47219;SDS011;32961;51.936;4.788;2023-11-19T00:45:11;47.03;;;6.18;;
47219;SDS011;32961;51.936;4.788;2023-11-19T00:47:39;63.72;;;6.93;;
47219;SDS011;32961;51.936;4.788;2023-11-19T00:50:07;36.85;;;5.78;;
47219;SDS011;32961;51.936;4.788;2023-11-19T00:52:36;45.05;;;5.88;;
47219;SDS011;32961;51.936;4.788;2023-11-19T00:55:05;36.50;;;7.05;;
47219;SDS011;32961;51.936;4.788;2023-11-19T00:57:35;38.60;;;6.03;;
47219;SDS011;32961;51.936;4.788;2023-11-19T01:00:04;41.92;;;5.82;;
47219;SDS011;32961;51.936;4.788;2023-11-19T01:02:35;43.83;;;6.15;;
47219;SDS011;32961;51.936;4.788;2023-11-19T01:05:04;34.42;;;5.28;;
47219;SDS011;32961;51.936;4.788;2023-11-19T01:07:35;50.05;;;6.70;;
47219;SDS011;32961;51.936;4.788;2023-11-19T01:10:03;43.92;;;5.78;;
47219;SDS011;32961;51.936;4.788;2023-11-19T01:12:31;52.80;;;8.55;;
47219;SDS011;32961;51.936;4.788;2023-11-19T01:15:01;49.92;;;6.72;;
47219;SDS011;32961;51.936;4.788;2023-11-19T01:17:28;45.97;;;6.55;;
47219;SDS011;32961;51.936;4.788;2023-11-19T01:19:58;40.55;;;7.82;;
47219;SDS011;32961;51.936;4.788;2023-11-19T01:22:26;43.10;;;6.22;;
47219;SDS011;32961;51.936;4.788;2023-11-19T01:24:53;42.83;;;7.07;;
47219;SDS011;32961;51.936;4.788;2023-11-19T01:27:21;45.65;;;6.97;;
47219;SDS011;32961;51.936;4.788;2023-11-19T01:29:49;56.75;;;7.47;;
47219;SDS011;32961;51.936;4.788;2023-11-19T01:32:18;48.67;;;6.18;;
47219;SDS011;32961;51.936;4.788;2023-11-19T01:34:46;48.80;;;6.43;;
47219;SDS011;32961;51.936;4.788;2023-11-19T01:37:14;56.25;;;7.95;;
47219;SDS011;32961;51.936;4.788;2023-11-19T01:39:43;54.83;;;7.80;;
47219;SDS011;32961;51.936;4.788;2023-11-19T01:42:11;53.67;;;7.35;;
47219;SDS011;32961;51.936;4.788;2023-11-19T01:44:39;42.63;;;6.32;;
47219;SDS011;32961;51.936;4.788;2023-11-19T01:47:07;58.00;;;6.78;;
47219;SDS011;32961;51.936;4.788;2023-11-19T01:49:37;51.35;;;7.72;;
47219;SDS011;32961;51.936;4.788;2023-11-19T01:52:05;52.90;;;7.80;;
47219;SDS011;32961;51.936;4.788;2023-11-19T01:54:34;48.67;;;7.32;;
47219;SDS011;32961;51.936;4.788;2023-11-19T01:57:02;47.63;;;7.30;;
47219;SDS011;32961;51.936;4.788;2023-11-19T01:59:31;59.13;;;8.43;;
47219;SDS011;32961;51.936;4.788;2023-11-19T02:01:59;47.75;;;7.90;;
47219;SDS011;32961;51.936;4.788;2023-11-19T02:04:27;48.58;;;7.47;;
47219;SDS011;32961;51.936;4.788;2023-11-19T02:06:57;54.85;;;7.32;;
47219;SDS011;32961;51.936;4.788;2023-11-19T02:09:25;64.13;;;9.30;;
47219;SDS011;32961;51.936;4.788;2023-11-19T02:11:54;54.80;;;7.80;;
47219;SDS011;32961;51.936;4.788;2023-11-19T02:14:22;54.95;;;8.77;;
47219;SDS011;32961;51.936;4.788;2023-11-19T02:16:53;46.10;;;7.13;;
47219;SDS011;32961;51.936;4.788;2023-11-19T02:19:21;56.38;;;7.35;;
47219;SDS011;32961;51.936;4.788;2023-11-19T02:21:49;51.25;;;8.32;;
47219;SDS011;32961;51.936;4.788;2023-11-19T02:24:18;51.85;;;7.97;;
47219;SDS011;32961;51.936;4.788;2023-11-19T02:26:51;55.50;;;7.93;;
47219;SDS011;32961;51.936;4.788;2023-11-19T02:29:27;60.38;;;7.97;;
47219;SDS011;32961;51.936;4.788;2023-11-19T02:31:55;50.45;;;8.40;;
47219;SDS011;32961;51.936;4.788;2023-11-19T02:34:23;55.72;;;8.95;;
47219;SDS011;32961;51.936;4.788;2023-11-19T02:36:51;59.25;;;8.38;;
47219;SDS011;32961;51.936;4.788;2023-11-19T02:39:20;54.30;;;8.00;;
47219;SDS011;32961;51.936;4.788;2023-11-19T02:41:48;57.40;;;10.02;;
47219;SDS011;32961;51.936;4.788;2023-11-19T02:44:17;47.90;;;7.72;;
47219;SDS011;32961;51.936;4.788;2023-11-19T02:46:46;68.60;;;10.23;;
47219;SDS011;32961;51.936;4.788;2023-11-19T02:49:14;59.38;;;8.80;;
47219;SDS011;32961;51.936;4.788;2023-11-19T02:51:42;49.28;;;7.72;;
47219;SDS011;32961;51.936;4.788;2023-11-19T02:54:10;57.67;;;7.90;;
47219;SDS011;32961;51.936;4.788;2023-11-19T02:56:41;55.00;;;8.43;;
47219;SDS011;32961;51.936;4.788;2023-11-19T02:59:10;44.22;;;7.40;;
47219;SDS011;32961;51.936;4.788;2023-11-19T03:01:54;63.03;;;8.73;;
47219;SDS011;32961;51.936;4.788;2023-11-19T03:04:22;64.22;;;9.25;;
47219;SDS011;32961;51.936;4.788;2023-11-19T03:06:50;60.95;;;9.48;;
47219;SDS011;32961;51.936;4.788;2023-11-19T03:09:19;61.03;;;8.65;;
47219;SDS011;32961;51.936;4.788;2023-11-19T03:11:47;51.60;;;8.43;;
47219;SDS011;32961;51.936;4.788;2023-11-19T03:14:16;58.35;;;8.68;;
47219;SDS011;32961;51.936;4.788;2023-11-19T03:16:44;50.38;;;8.10;;
47219;SDS011;32961;51.936;4.788;2023-11-19T03:19:14;48.40;;;7.85;;
47219;SDS011;32961;51.936;4.788;2023-11-19T03:21:51;66.63;;;9.27;;
47219;SDS011;32961;51.936;4.788;2023-11-19T03:24:19;47.13;;;8.23;;
47219;SDS011;32961;51.936;4.788;2023-11-19T03:26:47;59.15;;;9.43;;
47219;SDS011;32961;51.936;4.788;2023-11-19T03:29:16;53.83;;;9.13;;
47219;SDS011;32961;51.936;4.788;2023-11-19T03:31:44;66.20;;;10.35;;
47219;SDS011;32961;51.936;4.788;2023-11-19T03:34:13;47.55;;;7.68;;
47219;SDS011;32961;51.936;4.788;2023-11-19T03:36:41;56.72;;;8.70;;
47219;SDS011;32961;51.936;4.788;2023-11-19T03:39:09;49.40;;;6.82;;
47219;SDS011;32961;51.936;4.788;2023-11-19T03:41:37;61.63;;;10.40;;
47219;SDS011;32961;51.936;4.788;2023-11-19T03:44:08;62.00;;;9.95;;
47219;SDS011;32961;51.936;4.788;2023-11-19T03:46:35;58.30;;;7.88;;
47219;SDS011;32961;51.936;4.788;2023-11-19T03:49:04;59.60;;;8.15;;
47219;SDS011;32961;51.936;4.788;2023-11-19T03:51:35;50.35;;;8.77;;
47219;SDS011;32961;51.936;4.788;2023-11-19T03:54:02;47.47;;;7.38;;
47219;SDS011;32961;51.936;4.788;2023-11-19T03:56:29;58.40;;;9.90;;
47219;SDS011;32961;51.936;4.788;2023-11-19T03:58:59;53.30;;;8.40;;
47219;SDS011;32961;51.936;4.788;2023-11-19T04:01:26;61.25;;;8.32;;
47219;SDS011;32961;51.936;4.788;2023-11-19T04:03:54;51.17;;;8.00;;
47219;SDS011;32961;51.936;4.788;2023-11-19T04:06:23;57.55;;;8.38;;
47219;SDS011;32961;51.936;4.788;2023-11-19T04:08:52;57.53;;;9.45;;
47219;SDS011;32961;51.936;4.788;2023-11-19T04:11:20;50.50;;;8.25;;
47219;SDS011;32961;51.936;4.788;2023-11-19T04:13:48;45.65;;;8.43;;
47219;SDS011;32961;51.936;4.788;2023-11-19T04:16:16;53.92;;;8.70;;
47219;SDS011;32961;51.936;4.788;2023-11-19T04:18:43;57.97;;;10.52;;
47219;SDS011;32961;51.936;4.788;2023-11-19T04:21:11;57.40;;;9.23;;
47219;SDS011;32961;51.936;4.788;2023-11-19T04:23:39;52.90;;;8.98;;
47219;SDS011;32961;51.936;4.788;2023-11-19T04:26:08;59.85;;;9.40;;
47219;SDS011;32961;51.936;4.788;2023-11-19T04:28:37;52.55;;;6.90;;
47219;SDS011;32961;51.936;4.788;2023-11-19T04:31:04;61.35;;;8.25;;
47219;SDS011;32961;51.936;4.788;2023-11-19T04:33:33;58.80;;;10.10;;
47219;SDS011;32961;51.936;4.788;2023-11-19T04:36:01;54.30;;;8.02;;
47219;SDS011;32961;51.936;4.788;2023-11-19T04:38:29;54.08;;;8.00;;
47219;SDS011;32961;51.936;4.788;2023-11-19T04:40:57;62.42;;;9.68;;
47219;SDS011;32961;51.936;4.788;2023-11-19T04:43:26;54.08;;;9.05;;
47219;SDS011;32961;51.936;4.788;2023-11-19T04:45:54;68.22;;;9.63;;
47219;SDS011;32961;51.936;4.788;2023-11-19T04:48:22;49.38;;;7.53;;
47219;SDS011;32961;51.936;4.788;2023-11-19T04:50:50;53.88;;;8.63;;
47219;SDS011;32961;51.936;4.788;2023-11-19T04:53:19;55.63;;;8.57;;
47219;SDS011;32961;51.936;4.788;2023-11-19T04:55:46;56.67;;;8.52;;
47219;SDS011;32961;51.936;4.788;2023-11-19T04:58:15;53.08;;;7.78;;
47219;SDS011;32961;51.936;4.788;2023-11-19T05:00:44;52.40;;;8.68;;
47219;SDS011;32961;51.936;4.788;2023-11-19T05:03:12;60.53;;;9.18;;
47219;SDS011;32961;51.936;4.788;2023-11-19T05:05:40;52.55;;;8.90;;
47219;SDS011;32961;51.936;4.788;2023-11-19T05:08:07;59.65;;;9.00;;
47219;SDS011;32961;51.936;4.788;2023-11-19T05:10:35;55.67;;;10.25;;
47219;SDS011;32961;51.936;4.788;2023-11-19T05:13:03;44.75;;;7.30;;
47219;SDS011;32961;51.936;4.788;2023-11-19T05:15:31;54.67;;;9.68;;
47219;SDS011;32961;51.936;4.788;2023-11-19T05:18:01;56.28;;;8.05;;
47219;SDS011;32961;51.936;4.788;2023-11-19T05:20:28;52.10;;;8.52;;
47219;SDS011;32961;51.936;4.788;2023-11-19T05:22:56;62.33;;;9.55;;
47219;SDS011;32961;51.936;4.788;2023-11-19T05:25:26;58.58;;;8.95;;
47219;SDS011;32961;51.936;4.788;2023-11-19T05:27:54;55.42;;;8.98;;
47219;SDS011;32961;51.936;4.788;2023-11-19T05:30:22;57.15;;;9.88;;
47219;SDS011;32961;51.936;4.788;2023-11-19T05:32:50;61.03;;;10.02;;
47219;SDS011;32961;51.936;4.788;2023-11-19T05:35:19;64.50;;;9.07;;
47219;SDS011;32961;51.936;4.788;2023-11-19T05:37:47;56.40;;;9.50;;
47219;SDS011;32961;51.936;4.788;2023-11-19T05:40:16;68.95;;;9.80;;
47219;SDS011;32961;51.936;4.788;2023-11-19T05:42:46;69.53;;;9.23;;
47219;SDS011;32961;51.936;4.788;2023-11-19T05:45:14;66.10;;;10.55;;
47219;SDS011;32961;51.936;4.788;2023-11-19T05:47:42;63.53;;;8.27;;
47219;SDS011;32961;51.936;4.788;2023-11-19T05:50:10;73.07;;;10.52;;
47219;SDS011;32961;51.936;4.788;2023-11-19T05:52:39;61.05;;;9.65;;
47219;SDS011;32961;51.936;4.788;2023-11-19T05:55:07;46.90;;;7.78;;
47219;SDS011;32961;51.936;4.788;2023-11-19T05:57:37;50.80;;;9.45;;
47219;SDS011;32961;51.936;4.788;2023-11-19T06:00:09;59.25;;;8.45;;
47219;SDS011;32961;51.936;4.788;2023-11-19T06:02:39;55.15;;;10.50;;
47219;SDS011;32961;51.936;4.788;2023-11-19T06:05:07;51.75;;;7.93;;
47219;SDS011;32961;51.936;4.788;2023-11-19T06:07:36;67.03;;;10.65;;
47219;SDS011;32961;51.936;4.788;2023-11-19T06:10:07;58.08;;;8.20;;
47219;SDS011;32961;51.936;4.788;2023-11-19T06:12:36;49.95;;;8.93;;
47219;SDS011;32961;51.936;4.788;2023-11-19T06:15:07;69.75;;;11.57;;
47219;SDS011;32961;51.936;4.788;2023-11-19T06:17:36;51.78;;;7.82;;
47219;SDS011;32961;51.936;4.788;2023-11-19T06:20:05;58.78;;;8.52;;
47219;SDS011;32961;51.936;4.788;2023-11-19T06:22:34;56.60;;;8.23;;
47219;SDS011;32961;51.936;4.788;2023-11-19T06:25:02;57.38;;;7.75;;
47219;SDS011;32961;51.936;4.788;2023-11-19T06:27:35;74.05;;;12.27;;
47219;SDS011;32961;51.936;4.788;2023-11-19T06:30:03;61.75;;;9.30;;
47219;SDS011;32961;51.936;4.788;2023-11-19T06:32:32;55.67;;;8.95;;
47219;SDS011;32961;51.936;4.788;2023-11-19T06:35:00;52.90;;;7.55;;
47219;SDS011;32961;51.936;4.788;2023-11-19T06:37:27;51.00;;;8.30;;
47219;SDS011;32961;51.936;4.788;2023-11-19T06:39:56;47.53;;;8.38;;
47219;SDS011;32961;51.936;4.788;2023-11-19T06:42:23;49.70;;;7.30;;
47219;SDS011;32961;51.936;4.788;2023-11-19T06:44:54;62.53;;;10.35;;
47219;SDS011;32961;51.936;4.788;2023-11-19T06:47:25;54.03;;;8.77;;
47219;SDS011;32961;51.936;4.788;2023-11-19T06:49:54;55.03;;;7.93;;
47219;SDS011;32961;51.936;4.788;2023-11-19T06:52:22;58.13;;;8.38;;
47219;SDS011;32961;51.936;4.788;2023-11-19T06:54:50;68.45;;;9.98;;
47219;SDS011;32961;51.936;4.788;2023-11-19T06:57:18;49.55;;;7.43;;
47219;SDS011;32961;51.936;4.788;2023-11-19T06:59:46;53.55;;;9.77;;
47219;SDS011;32961;51.936;4.788;2023-11-19T07:02:16;50.75;;;8.25;;
47219;SDS011;32961;51.936;4.788;2023-11-19T07:04:44;67.22;;;10.80;;
47219;SDS011;32961;51.936;4.788;2023-11-19T07:07:12;54.30;;;7.43;;
47219;SDS011;32961;51.936;4.788;2023-11-19T07:09:41;48.95;;;9.52;;
47219;SDS011;32961;51.936;4.788;2023-11-19T07:12:09;58.90;;;10.05;;
47219;SDS011;32961;51.936;4.788;2023-11-19T07:14:37;56.67;;;9.10;;
47219;SDS011;32961;51.936;4.788;2023-11-19T07:17:05;58.10;;;9.90;;
47219;SDS011;32961;51.936;4.788;2023-11-19T07:19:34;60.42;;;9.27;;
47219;SDS011;32961;51.936;4.788;2023-11-19T07:22:02;65.38;;;9.65;;
47219;SDS011;32961;51.936;4.788;2023-11-19T07:24:31;55.15;;;9.20;;
47219;SDS011;32961;51.936;4.788;2023-11-19T07:26:59;64.18;;;11.90;;
47219;SDS011;32961;51.936;4.788;2023-11-19T07:29:27;59.10;;;7.57;;
47219;SDS011;32961;51.936;4.788;2023-11-19T07:31:55;63.60;;;8.25;;
47219;SDS011;32961;51.936;4.788;2023-11-19T07:34:23;59.00;;;8.95;;
47219;SDS011;32961;51.936;4.788;2023-11-19T07:36:53;53.85;;;8.38;;
47219;SDS011;32961;51.936;4.788;2023-11-19T07:39:23;63.58;;;9.77;;
47219;SDS011;32961;51.936;4.788;2023-11-19T07:41:51;53.97;;;8.75;;
47219;SDS011;32961;51.936;4.788;2023-11-19T07:44:19;52.60;;;8.80;;
47219;SDS011;32961;51.936;4.788;2023-11-19T07:46:47;59.47;;;8.45;;
47219;SDS011;32961;51.936;4.788;2023-11-19T07:49:16;43.05;;;7.50;;
47219;SDS011;32961;51.936;4.788;2023-11-19T07:51:43;49.15;;;8.63;;
47219;SDS011;32961;51.936;4.788;2023-11-19T07:54:13;59.65;;;9.00;;
47219;SDS011;32961;51.936;4.788;2023-11-19T07:56:41;55.65;;;9.10;;
47219;SDS011;32961;51.936;4.788;2023-11-19T07:59:09;55.80;;;9.10;;
47219;SDS011;32961;51.936;4.788;2023-11-19T08:01:37;59.33;;;9.68;;
47219;SDS011;32961;51.936;4.788;2023-11-19T08:04:05;59.70;;;7.97;;
47219;SDS011;32961;51.936;4.788;2023-11-19T08:06:33;56.65;;;8.75;;
47219;SDS011;32961;51.936;4.788;2023-11-19T08:09:01;64.00;;;11.40;;
47219;SDS011;32961;51.936;4.788;2023-11-19T08:11:30;50.67;;;9.27;;
47219;SDS011;32961;51.936;4.788;2023-11-19T08:13:58;46.28;;;7.18;;
47219;SDS011;32961;51.936;4.788;2023-11-19T08:16:26;46.78;;;6.60;;
47219;SDS011;32961;51.936;4.788;2023-11-19T08:18:54;49.80;;;9.18;;
47219;SDS011;32961;51.936;4.788;2023-11-19T08:21:24;46.55;;;7.65;;
47219;SDS011;32961;51.936;4.788;2023-11-19T08:23:53;49.17;;;7.28;;
47219;SDS011;32961;51.936;4.788;2023-11-19T08:26:21;53.75;;;10.05;;
47219;SDS011;32961;51.936;4.788;2023-11-19T08:28:50;56.40;;;8.98;;
47219;SDS011;32961;51.936;4.788;2023-11-19T08:31:18;49.47;;;6.32;;
47219;SDS011;32961;51.936;4.788;2023-11-19T08:33:46;57.67;;;8.13;;
47219;SDS011;32961;51.936;4.788;2023-11-19T08:36:17;56.38;;;7.82;;
47219;SDS011;32961;51.936;4.788;2023-11-19T08:38:47;68.75;;;11.75;;
47219;SDS011;32961;51.936;4.788;2023-11-19T08:41:16;55.83;;;8.20;;
47219;SDS011;32961;51.936;4.788;2023-11-19T08:43:44;49.33;;;9.68;;
47219;SDS011;32961;51.936;4.788;2023-11-19T08:46:14;44.15;;;7.43;;
47219;SDS011;32961;51.936;4.788;2023-11-19T08:48:42;54.00;;;8.65;;
47219;SDS011;32961;51.936;4.788;2023-11-19T08:51:10;45.20;;;8.27;;
47219;SDS011;32961;51.936;4.788;2023-11-19T08:53:38;54.92;;;9.38;;
47219;SDS011;32961;51.936;4.788;2023-11-19T08:56:06;52.70;;;8.85;;
47219;SDS011;32961;51.936;4.788;2023-11-19T08:58:34;47.45;;;9.23;;
47219;SDS011;32961;51.936;4.788;2023-11-19T09:01:02;50.53;;;9.30;;
47219;SDS011;32961;51.936;4.788;2023-11-19T09:03:32;47.03;;;7.10;;
47219;SDS011;32961;51.936;4.788;2023-11-19T09:06:00;52.42;;;8.40;;
47219;SDS011;32961;51.936;4.788;2023-11-19T09:08:28;43.05;;;7.65;;
47219;SDS011;32961;51.936;4.788;2023-11-19T09:10:56;49.20;;;7.45;;
47219;SDS011;32961;51.936;4.788;2023-11-19T09:13:23;51.72;;;10.32;;
47219;SDS011;32961;51.936;4.788;2023-11-19T09:15:51;44.97;;;8.52;;
47219;SDS011;32961;51.936;4.788;2023-11-19T09:18:19;58.78;;;8.85;;
47219;SDS011;32961;51.936;4.788;2023-11-19T09:20:48;43.78;;;6.78;;
47219;SDS011;32961;51.936;4.788;2023-11-19T09:23:16;49.80;;;8.00;;
47219;SDS011;32961;51.936;4.788;2023-11-19T09:25:44;52.30;;;8.90;;
47219;SDS011;32961;51.936;4.788;2023-11-19T09:28:12;54.50;;;7.95;;
47219;SDS011;32961;51.936;4.788;2023-11-19T09:30:40;45.47;;;7.38;;
47219;SDS011;32961;51.936;4.788;2023-11-19T09:33:08;63.83;;;9.02;;
47219;SDS011;32961;51.936;4.788;2023-11-19T09:35:36;54.70;;;8.02;;
47219;SDS011;32961;51.936;4.788;2023-11-19T09:38:05;51.38;;;8.07;;
47219;SDS011;32961;51.936;4.788;2023-11-19T09:40:34;48.78;;;7.07;;
47219;SDS011;32961;51.936;4.788;2023-11-19T09:43:01;42.92;;;7.55;;
47219;SDS011;32961;51.936;4.788;2023-11-19T09:45:29;55.50;;;8.15;;
47219;SDS011;32961;51.936;4.788;2023-11-19T09:48:08;41.22;;;7.97;;
47219;SDS011;32961;51.936;4.788;2023-11-19T09:50:36;42.47;;;7.40;;
47219;SDS011;32961;51.936;4.788;2023-11-19T09:53:07;47.20;;;6.30;;
47219;SDS011;32961;51.936;4.788;2023-11-19T09:55:35;42.28;;;7.53;;
47219;SDS011;32961;51.936;4.788;2023-11-19T09:58:02;50.80;;;8.82;;
47219;SDS011;32961;51.936;4.788;2023-11-19T10:00:30;41.72;;;6.32;;
47219;SDS011;32961;51.936;4.788;2023-11-19T10:02:59;41.83;;;7.78;;
47219;SDS011;32961;51.936;4.788;2023-11-19T10:05:27;52.65;;;8.70;;
47219;SDS011;32961;51.936;4.788;2023-11-19T10:07:55;40.40;;;7.00;;
47219;SDS011;32961;51.936;4.788;2023-11-19T10:10:24;50.60;;;7.60;;
47219;SDS011;32961;51.936;4.788;2023-11-19T10:12:52;39.35;;;6.85;;
47219;SDS011;32961;51.936;4.788;2023-11-19T10:15:24;50.78;;;8.68;;
47219;SDS011;32961;51.936;4.788;2023-11-19T10:17:54;50.00;;;7.22;;
47219;SDS011;32961;51.936;4.788;2023-11-19T10:20:23;47.38;;;7.72;;
47219;SDS011;32961;51.936;4.788;2023-11-19T10:22:52;43.42;;;7.32;;
47219;SDS011;32961;51.936;4.788;2023-11-19T10:25:25;37.90;;;7.45;;
47219;SDS011;32961;51.936;4.788;2023-11-19T10:27:54;44.08;;;7.03;;
47219;SDS011;32961;51.936;4.788;2023-11-19T10:30:24;52.60;;;8.48;;
47219;SDS011;32961;51.936;4.788;2023-11-19T10:33:05;51.97;;;8.13;;
47219;SDS011;32961;51.936;4.788;2023-11-19T10:35:34;46.28;;;7.95;;
47219;SDS011;32961;51.936;4.788;2023-11-19T10:38:12;44.65;;;8.07;;
47219;SDS011;32961;51.936;4.788;2023-11-19T10:40:43;45.92;;;10.23;;
47219;SDS011;32961;51.936;4.788;2023-11-19T10:43:10;54.67;;;9.07;;
47219;SDS011;32961;51.936;4.788;2023-11-19T10:45:40;61.97;;;7.25;;
47219;SDS011;32961;51.936;4.788;2023-11-19T10:48:08;55.65;;;9.02;;
47219;SDS011;32961;51.936;4.788;2023-11-19T10:50:36;53.80;;;7.15;;
47219;SDS011;32961;51.936;4.788;2023-11-19T10:53:06;49.35;;;7.25;;
47219;SDS011;32961;51.936;4.788;2023-11-19T10:55:35;45.97;;;8.40;;
47219;SDS011;32961;51.936;4.788;2023-11-19T10:58:07;40.80;;;6.78;;
47219;SDS011;32961;51.936;4.788;2023-11-19T11:00:37;41.60;;;7.03;;
47219;SDS011;32961;51.936;4.788;2023-11-19T11:03:09;40.75;;;6.88;;
47219;SDS011;32961;51.936;4.788;2023-11-19T11:05:38;37.47;;;7.68;;
47219;SDS011;32961;51.936;4.788;2023-11-19T11:08:08;51.95;;;7.25;;
47219;SDS011;32961;51.936;4.788;2023-11-19T11:10:39;53.35;;;8.63;;
47219;SDS011;32961;51.936;4.788;2023-11-19T11:13:14;42.78;;;6.82;;
47219;SDS011;32961;51.936;4.788;2023-11-19T11:15:43;39.45;;;8.05;;
47219;SDS011;32961;51.936;4.788;2023-11-19T11:18:13;49.53;;;7.47;;
47219;SDS011;32961;51.936;4.788;2023-11-19T11:20:43;51.83;;;7.38;;
47219;SDS011;32961;51.936;4.788;2023-11-19T11:23:18;40.22;;;6.60;;
47219;SDS011;32961;51.936;4.788;2023-11-19T11:26:00;42.65;;;7.45;;
47219;SDS011;32961;51.936;4.788;2023-11-19T11:28:46;38.42;;;5.82;;
47219;SDS011;32961;51.936;4.788;2023-11-19T11:31:23;34.05;;;7.10;;
47219;SDS011;32961;51.936;4.788;2023-11-19T11:34:02;39.50;;;7.85;;
47219;SDS011;32961;51.936;4.788;2023-11-19T11:36:54;35.47;;;8.05;;
47219;SDS011;32961;51.936;4.788;2023-11-19T11:39:30;37.72;;;6.35;;
47219;SDS011;32961;51.936;4.788;2023-11-19T11:45:06;33.28;;;6.00;;
47219;SDS011;32961;51.936;4.788;2023-11-19T11:50:47;38.10;;;6.88;;
47219;SDS011;32961;51.936;4.788;2023-11-19T11:53:16;32.15;;;5.55;;
47219;SDS011;32961;51.936;4.788;2023-11-19T11:55:57;43.33;;;7.32;;
47219;SDS011;32961;51.936;4.788;2023-11-19T11:58:32;43.35;;;7.72;;
47219;SDS011;32961;51.936;4.788;2023-11-19T12:01:05;38.95;;;6.47;;
47219;SDS011;32961;51.936;4.788;2023-11-19T12:03:33;38.03;;;6.28;;
47219;SDS011;32961;51.936;4.788;2023-11-19T12:06:01;34.35;;;6.63;;
47219;SDS011;32961;51.936;4.788;2023-11-19T12:08:30;44.03;;;7.93;;
47219;SDS011;32961;51.936;4.788;2023-11-19T12:10:57;41.20;;;7.70;;
47219;SDS011;32961;51.936;4.788;2023-11-19T12:13:42;56.38;;;10.88;;
47219;SDS011;32961;51.936;4.788;2023-11-19T12:16:15;46.13;;;8.32;;
47219;SDS011;32961;51.936;4.788;2023-11-19T12:18:43;36.60;;;6.93;;
47219;SDS011;32961;51.936;4.788;2023-11-19T12:21:11;51.47;;;7.80;;
47219;SDS011;32961;51.936;4.788;2023-11-19T12:23:55;40.28;;;8.00;;
47219;SDS011;32961;51.936;4.788;2023-11-19T12:26:38;50.40;;;7.95;;
47219;SDS011;32961;51.936;4.788;2023-11-19T12:29:07;39.30;;;6.40;;
47219;SDS011;32961;51.936;4.788;2023-11-19T12:31:37;45.40;;;7.30;;
47219;SDS011;32961;51.936;4.788;2023-11-19T12:34:06;38.05;;;7.40;;
47219;SDS011;32961;51.936;4.788;2023-11-19T12:36:39;43.92;;;6.80;;
47219;SDS011;32961;51.936;4.788;2023-11-19T12:39:09;50.25;;;7.45;;
47219;SDS011;32961;51.936;4.788;2023-11-19T12:41:48;40.00;;;8.65;;
47219;SDS011;32961;51.936;4.788;2023-11-19T12:44:18;45.20;;;9.38;;
47219;SDS011;32961;51.936;4.788;2023-11-19T12:46:47;47.00;;;7.82;;
47219;SDS011;32961;51.936;4.788;2023-11-19T12:49:27;38.13;;;6.95;;
47219;SDS011;32961;51.936;4.788;2023-11-19T12:51:55;31.50;;;5.88;;
47219;SDS011;32961;51.936;4.788;2023-11-19T12:54:31;54.70;;;7.22;;
47219;SDS011;32961;51.936;4.788;2023-11-19T12:57:00;37.53;;;6.95;;
47219;SDS011;32961;51.936;4.788;2023-11-19T12:59:31;49.20;;;8.20;;
47219;SDS011;32961;51.936;4.788;2023-11-19T13:02:00;40.95;;;7.65;;
47219;SDS011;32961;51.936;4.788;2023-11-19T13:04:32;33.00;;;5.95;;
47219;SDS011;32961;51.936;4.788;2023-11-19T13:07:00;34.63;;;6.47;;
47219;SDS011;32961;51.936;4.788;2023-11-19T13:09:31;38.67;;;6.47;;
47219;SDS011;32961;51.936;4.788;2023-11-19T13:11:59;26.85;;;5.55;;
47219;SDS011;32961;51.936;4.788;2023-11-19T13:14:40;30.58;;;6.57;;
47219;SDS011;32961;51.936;4.788;2023-11-19T13:17:14;29.52;;;5.20;;
47219;SDS011;32961;51.936;4.788;2023-11-19T13:19:42;37.38;;;6.35;;
47219;SDS011;32961;51.936;4.788;2023-11-19T13:22:10;33.17;;;6.15;;
47219;SDS011;32961;51.936;4.788;2023-11-19T13:24:38;29.60;;;5.90;;
47219;SDS011;32961;51.936;4.788;2023-11-19T13:27:06;34.53;;;5.68;;
47219;SDS011;32961;51.936;4.788;2023-11-19T13:29:34;34.60;;;6.32;;
47219;SDS011;32961;51.936;4.788;2023-11-19T13:32:02;24.25;;;5.13;;
47219;SDS011;32961;51.936;4.788;2023-11-19T13:34:33;31.25;;;5.45;;
47219;SDS011;32961;51.936;4.788;2023-11-19T13:37:01;38.53;;;7.32;;
47219;SDS011;32961;51.936;4.788;2023-11-19T13:39:29;31.67;;;6.15;;
47219;SDS011;32961;51.936;4.788;2023-11-19T13:41:57;31.88;;;5.72;;
47219;SDS011;32961;51.936;4.788;2023-11-19T13:44:28;45.22;;;7.00;;
47219;SDS011;32961;51.936;4.788;2023-11-19T13:46:56;48.05;;;7.40;;
47219;SDS011;32961;51.936;4.788;2023-11-19T13:49:24;39.80;;;7.78;;
47219;SDS011;32961;51.936;4.788;2023-11-19T13:51:53;33.50;;;6.00;;
47219;SDS011;32961;51.936;4.788;2023-11-19T13:54:21;38.60;;;7.05;;
47219;SDS011;32961;51.936;4.788;2023-11-19T13:56:49;35.15;;;5.47;;
47219;SDS011;32961;51.936;4.788;2023-11-19T13:59:20;44.33;;;9.75;;
47219;SDS011;32961;51.936;4.788;2023-11-19T14:01:48;38.95;;;6.95;;
47219;SDS011;32961;51.936;4.788;2023-11-19T14:04:16;37.20;;;7.35;;
47219;SDS011;32961;51.936;4.788;2023-11-19T14:06:44;45.67;;;8.10;;
47219;SDS011;32961;51.936;4.788;2023-11-19T14:09:14;66.55;;;10.43;;
47219;SDS011;32961;51.936;4.788;2023-11-19T14:11:42;37.60;;;7.72;;
47219;SDS011;32961;51.936;4.788;2023-11-19T14:14:10;42.60;;;8.13;;
47219;SDS011;32961;51.936;4.788;2023-11-19T14:16:38;44.85;;;9.27;;
47219;SDS011;32961;51.936;4.788;2023-11-19T14:19:06;36.60;;;7.10;;
47219;SDS011;32961;51.936;4.788;2023-11-19T14:21:34;41.58;;;7.45;;
47219;SDS011;32961;51.936;4.788;2023-11-19T14:24:02;52.65;;;7.75;;
47219;SDS011;32961;51.936;4.788;2023-11-19T14:26:32;51.42;;;10.07;;
47219;SDS011;32961;51.936;4.788;2023-11-19T14:28:59;32.40;;;6.95;;
47219;SDS011;32961;51.936;4.788;2023-11-19T14:31:27;45.25;;;6.25;;
47219;SDS011;32961;51.936;4.788;2023-11-19T14:33:55;41.10;;;8.00;;
47219;SDS011;32961;51.936;4.788;2023-11-19T14:36:23;40.80;;;7.03;;
47219;SDS011;32961;51.936;4.788;2023-11-19T14:38:51;41.70;;;7.93;;
47219;SDS011;32961;51.936;4.788;2023-11-19T14:41:19;45.70;;;6.80;;
47219;SDS011;32961;51.936;4.788;2023-11-19T14:43:48;37.45;;;6.82;;
47219;SDS011;32961;51.936;4.788;2023-11-19T14:46:16;42.72;;;6.30;;
47219;SDS011;32961;51.936;4.788;2023-11-19T14:48:44;41.38;;;6.53;;
47219;SDS011;32961;51.936;4.788;2023-11-19T14:51:12;52.53;;;8.63;;